sensor_id;sensor_type;location;lat;lon;timestamp;P1;durP1;ratioP1;P2;durP2;ratioP2
21890;SDS011;11110;52.386;16.940;2023-06-14T00:00:47;6.50;;;5.68;;
21890;SDS011;11110;52.386;16.940;2023-06-14T00:03:35;7.07;;;6.05;;
21890;SDS011;11110;52.386;16.940;2023-06-14T00:06:05;6.63;;;5.95;;
21890;SDS011;11110;52.386;16.940;2023-06-14T00:08:34;6.70;;;5.25;;
21890;SDS011;11110;52.386;16.940;2023-06-14T00:11:04;7.30;;;5.97;;
21890;SDS011;11110;52.386;16.940;2023-06-14T00:13:32;7.28;;;6.35;;
21890;SDS011;11110;52.386;16.940;2023-06-14T00:16:01;7.30;;;5.30;;
21890;SDS011;11110;52.386;16.940;2023-06-14T00:18:30;7.38;;;5.45;;
21890;SDS011;11110;52.386;16.940;2023-06-14T00:20:59;6.60;;;5.47;;
21890;SDS011;11110;52.386;16.940;2023-06-14T00:23:29;5.03;;;4.53;;
21890;SDS011;11110;52.386;16.940;2023-06-14T00:25:57;5.45;;;4.80;;
21890;SDS011;11110;52.386;16.940;2023-06-14T00:28:27;4.72;;;4.32;;
21890;SDS011;11110;52.386;16.940;2023-06-14T00:30:56;5.95;;;4.90;;
21890;SDS011;11110;52.386;16.940;2023-06-14T00:33:24;5.47;;;4.95;;
21890;SDS011;11110;52.386;16.940;2023-06-14T00:35:53;8.32;;;4.95;;
21890;SDS011;11110;52.386;16.940;2023-06-14T00:38:21;4.93;;;4.43;;
21890;SDS011;11110;52.386;16.940;2023-06-14T00:40:50;5.55;;;4.38;;
21890;SDS011;11110;52.386;16.940;2023-06-14T00:43:19;7.53;;;4.97;;
21890;SDS011;11110;52.386;16.940;2023-06-14T00:45:49;5.43;;;4.38;;
21890;SDS011;11110;52.386;16.940;2023-06-14T00:48:18;5.00;;;4.60;;
21890;SDS011;11110;52.386;16.940;2023-06-14T00:50:47;5.03;;;4.50;;
21890;SDS011;11110;52.386;16.940;2023-06-14T00:53:18;7.18;;;4.43;;
21890;SDS011;11110;52.386;16.940;2023-06-14T00:55:51;7.18;;;4.90;;
21890;SDS011;11110;52.386;16.940;2023-06-14T00:58:21;5.03;;;4.50;;
21890;SDS011;11110;52.386;16.940;2023-06-14T01:00:51;5.18;;;4.43;;
21890;SDS011;11110;52.386;16.940;2023-06-14T01:03:20;5.22;;;4.50;;
21890;SDS011;11110;52.386;16.940;2023-06-14T01:05:49;5.63;;;4.60;;
21890;SDS011;11110;52.386;16.940;2023-06-14T01:08:28;5.18;;;4.68;;
21890;SDS011;11110;52.386;16.940;2023-06-14T01:11:05;4.88;;;4.05;;
21890;SDS011;11110;52.386;16.940;2023-06-14T01:13:40;4.80;;;4.15;;
21890;SDS011;11110;52.386;16.940;2023-06-14T01:16:14;5.18;;;4.15;;
21890;SDS011;11110;52.386;16.940;2023-06-14T01:18:43;5.40;;;4.43;;
21890;SDS011;11110;52.386;16.940;2023-06-14T01:21:21;6.10;;;4.35;;
21890;SDS011;11110;52.386;16.940;2023-06-14T01:23:52;7.03;;;4.18;;
21890;SDS011;11110;52.386;16.940;2023-06-14T01:26:21;8.07;;;4.80;;
21890;SDS011;11110;52.386;16.940;2023-06-14T01:28:52;10.15;;;5.10;;
21890;SDS011;11110;52.386;16.940;2023-06-14T01:31:23;10.10;;;5.22;;
21890;SDS011;11110;52.386;16.940;2023-06-14T01:33:53;11.65;;;5.45;;
21890;SDS011;11110;52.386;16.940;2023-06-14T01:36:22;8.38;;;5.15;;
21890;SDS011;11110;52.386;16.940;2023-06-14T01:38:58;12.27;;;5.43;;
21890;SDS011;11110;52.386;16.940;2023-06-14T01:41:28;8.70;;;5.18;;
21890;SDS011;11110;52.386;16.940;2023-06-14T01:43:58;10.57;;;5.05;;
21890;SDS011;11110;52.386;16.940;2023-06-14T01:46:28;10.35;;;5.40;;
21890;SDS011;11110;52.386;16.940;2023-06-14T01:48:57;9.60;;;4.75;;
21890;SDS011;11110;52.386;16.940;2023-06-14T01:51:26;7.00;;;4.45;;
21890;SDS011;11110;52.386;16.940;2023-06-14T01:53:54;9.70;;;5.60;;
21890;SDS011;11110;52.386;16.940;2023-06-14T01:56:25;9.98;;;5.10;;
21890;SDS011;11110;52.386;16.940;2023-06-14T01:58:54;8.35;;;5.00;;
21890;SDS011;11110;52.386;16.940;2023-06-14T02:01:22;7.72;;;4.57;;
21890;SDS011;11110;52.386;16.940;2023-06-14T02:03:52;7.88;;;5.10;;
21890;SDS011;11110;52.386;16.940;2023-06-14T02:06:20;7.93;;;4.93;;
21890;SDS011;11110;52.386;16.940;2023-06-14T02:08:49;6.78;;;4.85;;
21890;SDS011;11110;52.386;16.940;2023-06-14T02:11:19;7.05;;;4.78;;
21890;SDS011;11110;52.386;16.940;2023-06-14T02:13:48;8.38;;;4.68;;
21890;SDS011;11110;52.386;16.940;2023-06-14T02:16:17;7.70;;;4.57;;
21890;SDS011;11110;52.386;16.940;2023-06-14T02:18:47;8.25;;;4.80;;
21890;SDS011;11110;52.386;16.940;2023-06-14T02:21:16;6.68;;;4.60;;
21890;SDS011;11110;52.386;16.940;2023-06-14T02:23:45;6.78;;;4.78;;
21890;SDS011;11110;52.386;16.940;2023-06-14T02:26:14;7.22;;;4.88;;
21890;SDS011;11110;52.386;16.940;2023-06-14T02:28:43;10.65;;;5.38;;
21890;SDS011;11110;52.386;16.940;2023-06-14T02:31:13;5.57;;;4.57;;
21890;SDS011;11110;52.386;16.940;2023-06-14T02:33:42;6.30;;;4.88;;
21890;SDS011;11110;52.386;16.940;2023-06-14T02:36:10;9.00;;;4.63;;
21890;SDS011;11110;52.386;16.940;2023-06-14T02:38:38;5.95;;;4.60;;
21890;SDS011;11110;52.386;16.940;2023-06-14T02:41:08;6.28;;;4.40;;
21890;SDS011;11110;52.386;16.940;2023-06-14T02:43:37;5.45;;;4.53;;
21890;SDS011;11110;52.386;16.940;2023-06-14T02:46:06;7.47;;;4.70;;
21890;SDS011;11110;52.386;16.940;2023-06-14T02:48:36;6.07;;;4.72;;
21890;SDS011;11110;52.386;16.940;2023-06-14T02:51:05;9.30;;;5.30;;
21890;SDS011;11110;52.386;16.940;2023-06-14T02:53:35;6.00;;;4.40;;
21890;SDS011;11110;52.386;16.940;2023-06-14T02:56:05;11.05;;;5.00;;
21890;SDS011;11110;52.386;16.940;2023-06-14T02:58:33;7.82;;;4.68;;
21890;SDS011;11110;52.386;16.940;2023-06-14T03:01:01;8.77;;;5.00;;
21890;SDS011;11110;52.386;16.940;2023-06-14T03:03:31;8.38;;;5.30;;
21890;SDS011;11110;52.386;16.940;2023-06-14T03:06:01;7.70;;;5.45;;
21890;SDS011;11110;52.386;16.940;2023-06-14T03:08:34;6.32;;;4.35;;
21890;SDS011;11110;52.386;16.940;2023-06-14T03:11:10;7.40;;;4.72;;
21890;SDS011;11110;52.386;16.940;2023-06-14T03:13:39;7.35;;;4.50;;
21890;SDS011;11110;52.386;16.940;2023-06-14T03:16:08;8.05;;;4.53;;
21890;SDS011;11110;52.386;16.940;2023-06-14T03:18:39;8.68;;;4.93;;
21890;SDS011;11110;52.386;16.940;2023-06-14T03:21:08;8.18;;;5.22;;
21890;SDS011;11110;52.386;16.940;2023-06-14T03:23:41;9.15;;;4.90;;
21890;SDS011;11110;52.386;16.940;2023-06-14T03:26:09;11.55;;;5.28;;
21890;SDS011;11110;52.386;16.940;2023-06-14T03:28:40;7.55;;;4.90;;
21890;SDS011;11110;52.386;16.940;2023-06-14T03:31:09;10.00;;;4.97;;
21890;SDS011;11110;52.386;16.940;2023-06-14T03:33:37;9.82;;;5.57;;
21890;SDS011;11110;52.386;16.940;2023-06-14T03:36:06;7.75;;;4.70;;
21890;SDS011;11110;52.386;16.940;2023-06-14T03:38:37;6.05;;;4.50;;
21890;SDS011;11110;52.386;16.940;2023-06-14T03:41:05;9.45;;;5.07;;
21890;SDS011;11110;52.386;16.940;2023-06-14T03:43:34;5.40;;;4.43;;
21890;SDS011;11110;52.386;16.940;2023-06-14T03:46:02;5.32;;;4.35;;
21890;SDS011;11110;52.386;16.940;2023-06-14T03:48:33;11.70;;;7.82;;
21890;SDS011;11110;52.386;16.940;2023-06-14T03:51:02;7.10;;;5.18;;
21890;SDS011;11110;52.386;16.940;2023-06-14T03:53:33;7.40;;;4.55;;
21890;SDS011;11110;52.386;16.940;2023-06-14T03:56:10;8.43;;;4.30;;
21890;SDS011;11110;52.386;16.940;2023-06-14T03:58:42;7.28;;;4.50;;
21890;SDS011;11110;52.386;16.940;2023-06-14T04:01:11;5.78;;;4.72;;
21890;SDS011;11110;52.386;16.940;2023-06-14T04:03:39;8.35;;;4.78;;
21890;SDS011;11110;52.386;16.940;2023-06-14T04:06:08;8.02;;;4.28;;
21890;SDS011;11110;52.386;16.940;2023-06-14T04:08:38;7.95;;;4.88;;
21890;SDS011;11110;52.386;16.940;2023-06-14T04:11:07;8.23;;;4.72;;
21890;SDS011;11110;52.386;16.940;2023-06-14T04:13:36;7.85;;;4.55;;
21890;SDS011;11110;52.386;16.940;2023-06-14T04:16:06;5.85;;;4.32;;
21890;SDS011;11110;52.386;16.940;2023-06-14T04:18:35;7.65;;;4.82;;
21890;SDS011;11110;52.386;16.940;2023-06-14T04:21:04;6.70;;;4.35;;
21890;SDS011;11110;52.386;16.940;2023-06-14T04:23:33;7.30;;;4.45;;
21890;SDS011;11110;52.386;16.940;2023-06-14T04:26:03;12.32;;;5.18;;
21890;SDS011;11110;52.386;16.940;2023-06-14T04:28:31;7.95;;;4.60;;
21890;SDS011;11110;52.386;16.940;2023-06-14T04:31:08;6.72;;;4.68;;
21890;SDS011;11110;52.386;16.940;2023-06-14T04:33:38;5.60;;;4.32;;
21890;SDS011;11110;52.386;16.940;2023-06-14T04:36:15;6.47;;;4.95;;
21890;SDS011;11110;52.386;16.940;2023-06-14T04:38:47;8.40;;;4.75;;
21890;SDS011;11110;52.386;16.940;2023-06-14T04:41:17;5.60;;;4.22;;
21890;SDS011;11110;52.386;16.940;2023-06-14T04:43:46;5.68;;;4.40;;
21890;SDS011;11110;52.386;16.940;2023-06-14T04:46:16;11.18;;;4.93;;
21890;SDS011;11110;52.386;16.940;2023-06-14T04:48:45;8.60;;;5.10;;
21890;SDS011;11110;52.386;16.940;2023-06-14T04:51:15;6.03;;;4.70;;
21890;SDS011;11110;52.386;16.940;2023-06-14T04:53:48;7.22;;;4.85;;
21890;SDS011;11110;52.386;16.940;2023-06-14T04:56:18;7.88;;;4.63;;
21890;SDS011;11110;52.386;16.940;2023-06-14T04:58:49;5.75;;;4.22;;
21890;SDS011;11110;52.386;16.940;2023-06-14T05:01:18;8.35;;;5.53;;
21890;SDS011;11110;52.386;16.940;2023-06-14T05:03:47;6.70;;;4.57;;
21890;SDS011;11110;52.386;16.940;2023-06-14T05:06:16;7.90;;;4.85;;
21890;SDS011;11110;52.386;16.940;2023-06-14T05:08:45;7.88;;;5.25;;
21890;SDS011;11110;52.386;16.940;2023-06-14T05:11:13;7.88;;;5.15;;
21890;SDS011;11110;52.386;16.940;2023-06-14T05:13:45;9.02;;;5.13;;
21890;SDS011;11110;52.386;16.940;2023-06-14T05:16:15;8.13;;;4.93;;
21890;SDS011;11110;52.386;16.940;2023-06-14T05:18:46;9.00;;;4.95;;
21890;SDS011;11110;52.386;16.940;2023-06-14T05:21:15;8.27;;;4.32;;
21890;SDS011;11110;52.386;16.940;2023-06-14T05:23:44;9.20;;;5.45;;
21890;SDS011;11110;52.386;16.940;2023-06-14T05:26:12;10.27;;;5.63;;
21890;SDS011;11110;52.386;16.940;2023-06-14T05:28:41;8.90;;;5.47;;
21890;SDS011;11110;52.386;16.940;2023-06-14T05:31:11;7.60;;;4.70;;
21890;SDS011;11110;52.386;16.940;2023-06-14T05:33:40;11.20;;;5.03;;
21890;SDS011;11110;52.386;16.940;2023-06-14T05:36:08;9.15;;;5.35;;
21890;SDS011;11110;52.386;16.940;2023-06-14T05:38:37;8.00;;;5.43;;
21890;SDS011;11110;52.386;16.940;2023-06-14T05:41:05;6.35;;;4.82;;
21890;SDS011;11110;52.386;16.940;2023-06-14T05:43:34;7.57;;;4.80;;
21890;SDS011;11110;52.386;16.940;2023-06-14T05:46:02;11.00;;;6.07;;
21890;SDS011;11110;52.386;16.940;2023-06-14T05:48:32;8.40;;;4.72;;
21890;SDS011;11110;52.386;16.940;2023-06-14T05:51:01;8.88;;;5.22;;
21890;SDS011;11110;52.386;16.940;2023-06-14T05:53:29;8.02;;;5.07;;
21890;SDS011;11110;52.386;16.940;2023-06-14T05:55:58;10.60;;;5.97;;
21890;SDS011;11110;52.386;16.940;2023-06-14T05:58:27;8.13;;;5.75;;
21890;SDS011;11110;52.386;16.940;2023-06-14T06:00:55;6.85;;;4.75;;
21890;SDS011;11110;52.386;16.940;2023-06-14T06:03:24;7.90;;;5.60;;
21890;SDS011;11110;52.386;16.940;2023-06-14T06:05:57;9.13;;;5.15;;
21890;SDS011;11110;52.386;16.940;2023-06-14T06:08:26;9.43;;;5.53;;
21890;SDS011;11110;52.386;16.940;2023-06-14T06:10:54;9.35;;;5.63;;
21890;SDS011;11110;52.386;16.940;2023-06-14T06:13:23;9.23;;;5.03;;
21890;SDS011;11110;52.386;16.940;2023-06-14T06:15:51;10.18;;;5.75;;
21890;SDS011;11110;52.386;16.940;2023-06-14T06:18:20;11.75;;;6.68;;
21890;SDS011;11110;52.386;16.940;2023-06-14T06:20:48;8.15;;;5.18;;
21890;SDS011;11110;52.386;16.940;2023-06-14T06:23:18;8.88;;;5.90;;
21890;SDS011;11110;52.386;16.940;2023-06-14T06:25:46;7.82;;;5.55;;
21890;SDS011;11110;52.386;16.940;2023-06-14T06:28:15;8.75;;;5.18;;
21890;SDS011;11110;52.386;16.940;2023-06-14T06:30:43;8.77;;;5.57;;
21890;SDS011;11110;52.386;16.940;2023-06-14T06:33:13;8.57;;;5.60;;
21890;SDS011;11110;52.386;16.940;2023-06-14T06:35:41;6.82;;;4.35;;
21890;SDS011;11110;52.386;16.940;2023-06-14T06:38:10;8.25;;;5.22;;
21890;SDS011;11110;52.386;16.940;2023-06-14T06:40:40;7.72;;;5.15;;
21890;SDS011;11110;52.386;16.940;2023-06-14T06:43:08;7.15;;;4.55;;
21890;SDS011;11110;52.386;16.940;2023-06-14T06:45:44;8.35;;;4.82;;
21890;SDS011;11110;52.386;16.940;2023-06-14T06:48:13;8.80;;;5.57;;
21890;SDS011;11110;52.386;16.940;2023-06-14T06:50:42;8.27;;;5.07;;
21890;SDS011;11110;52.386;16.940;2023-06-14T06:53:11;7.30;;;5.07;;
21890;SDS011;11110;52.386;16.940;2023-06-14T06:55:45;9.98;;;5.57;;
21890;SDS011;11110;52.386;16.940;2023-06-14T06:58:14;6.88;;;4.93;;
21890;SDS011;11110;52.386;16.940;2023-06-14T07:00:42;10.95;;;5.65;;
21890;SDS011;11110;52.386;16.940;2023-06-14T07:03:11;8.90;;;5.20;;
21890;SDS011;11110;52.386;16.940;2023-06-14T07:05:40;6.20;;;4.65;;
21890;SDS011;11110;52.386;16.940;2023-06-14T07:08:09;9.27;;;4.97;;
21890;SDS011;11110;52.386;16.940;2023-06-14T07:10:37;7.07;;;5.25;;
21890;SDS011;11110;52.386;16.940;2023-06-14T07:13:07;8.85;;;5.13;;
21890;SDS011;11110;52.386;16.940;2023-06-14T07:15:36;11.15;;;5.57;;
21890;SDS011;11110;52.386;16.940;2023-06-14T07:18:04;8.68;;;5.15;;
21890;SDS011;11110;52.386;16.940;2023-06-14T07:20:33;8.77;;;4.93;;
21890;SDS011;11110;52.386;16.940;2023-06-14T07:23:05;9.02;;;4.82;;
21890;SDS011;11110;52.386;16.940;2023-06-14T07:25:33;10.18;;;5.80;;
21890;SDS011;11110;52.386;16.940;2023-06-14T07:28:02;7.53;;;4.72;;
21890;SDS011;11110;52.386;16.940;2023-06-14T07:30:32;7.78;;;5.03;;
21890;SDS011;11110;52.386;16.940;2023-06-14T07:33:01;8.75;;;5.10;;
21890;SDS011;11110;52.386;16.940;2023-06-14T07:35:29;9.40;;;4.68;;
21890;SDS011;11110;52.386;16.940;2023-06-14T07:37:58;9.82;;;5.32;;
21890;SDS011;11110;52.386;16.940;2023-06-14T07:40:26;10.02;;;5.85;;
21890;SDS011;11110;52.386;16.940;2023-06-14T07:42:55;10.38;;;5.15;;
21890;SDS011;11110;52.386;16.940;2023-06-14T07:45:23;10.95;;;4.85;;
21890;SDS011;11110;52.386;16.940;2023-06-14T07:47:53;8.93;;;5.35;;
21890;SDS011;11110;52.386;16.940;2023-06-14T07:50:23;11.00;;;5.75;;
21890;SDS011;11110;52.386;16.940;2023-06-14T07:52:52;9.57;;;6.28;;
21890;SDS011;11110;52.386;16.940;2023-06-14T07:55:20;9.43;;;5.88;;
21890;SDS011;11110;52.386;16.940;2023-06-14T07:57:49;10.88;;;4.90;;
21890;SDS011;11110;52.386;16.940;2023-06-14T08:00:18;9.95;;;5.65;;
21890;SDS011;11110;52.386;16.940;2023-06-14T08:02:47;12.93;;;6.72;;
21890;SDS011;11110;52.386;16.940;2023-06-14T08:05:22;10.02;;;6.82;;
21890;SDS011;11110;52.386;16.940;2023-06-14T08:07:50;13.85;;;8.05;;
21890;SDS011;11110;52.386;16.940;2023-06-14T08:10:19;10.65;;;6.10;;
21890;SDS011;11110;52.386;16.940;2023-06-14T08:12:48;8.95;;;5.88;;
21890;SDS011;11110;52.386;16.940;2023-06-14T08:15:17;8.82;;;5.80;;
21890;SDS011;11110;52.386;16.940;2023-06-14T08:17:47;11.05;;;7.03;;
21890;SDS011;11110;52.386;16.940;2023-06-14T08:20:17;12.68;;;7.68;;
21890;SDS011;11110;52.386;16.940;2023-06-14T08:22:47;11.18;;;5.28;;
21890;SDS011;11110;52.386;16.940;2023-06-14T08:25:16;10.30;;;6.20;;
21890;SDS011;11110;52.386;16.940;2023-06-14T08:27:45;8.40;;;5.43;;
21890;SDS011;11110;52.386;16.940;2023-06-14T08:30:14;7.80;;;5.95;;
21890;SDS011;11110;52.386;16.940;2023-06-14T08:32:44;10.85;;;7.13;;
21890;SDS011;11110;52.386;16.940;2023-06-14T08:35:17;9.80;;;6.32;;
21890;SDS011;11110;52.386;16.940;2023-06-14T08:37:48;9.65;;;6.88;;
21890;SDS011;11110;52.386;16.940;2023-06-14T08:40:18;9.90;;;6.50;;
21890;SDS011;11110;52.386;16.940;2023-06-14T08:42:50;9.43;;;5.90;;
21890;SDS011;11110;52.386;16.940;2023-06-14T08:45:19;8.65;;;5.75;;
21890;SDS011;11110;52.386;16.940;2023-06-14T08:47:53;7.18;;;5.20;;
21890;SDS011;11110;52.386;16.940;2023-06-14T08:50:25;10.77;;;6.05;;
21890;SDS011;11110;52.386;16.940;2023-06-14T08:53:00;18.95;;;13.55;;
21890;SDS011;11110;52.386;16.940;2023-06-14T08:55:31;12.02;;;6.78;;
21890;SDS011;11110;52.386;16.940;2023-06-14T08:58:03;10.48;;;6.90;;
21890;SDS011;11110;52.386;16.940;2023-06-14T09:00:32;11.57;;;6.68;;
21890;SDS011;11110;52.386;16.940;2023-06-14T09:03:01;9.45;;;6.10;;
21890;SDS011;11110;52.386;16.940;2023-06-14T09:05:30;10.40;;;7.28;;
21890;SDS011;11110;52.386;16.940;2023-06-14T09:08:00;9.63;;;6.90;;
21890;SDS011;11110;52.386;16.940;2023-06-14T09:10:32;6.85;;;5.68;;
21890;SDS011;11110;52.386;16.940;2023-06-14T09:13:04;7.75;;;5.80;;
21890;SDS011;11110;52.386;16.940;2023-06-14T09:15:33;10.65;;;6.10;;
21890;SDS011;11110;52.386;16.940;2023-06-14T09:18:03;11.18;;;5.82;;
21890;SDS011;11110;52.386;16.940;2023-06-14T09:20:32;9.73;;;5.88;;
21890;SDS011;11110;52.386;16.940;2023-06-14T09:23:03;7.90;;;5.70;;
21890;SDS011;11110;52.386;16.940;2023-06-14T09:25:41;5.40;;;4.80;;
21890;SDS011;11110;52.386;16.940;2023-06-14T09:28:12;7.75;;;5.55;;
21890;SDS011;11110;52.386;16.940;2023-06-14T09:30:40;5.90;;;5.03;;
21890;SDS011;11110;52.386;16.940;2023-06-14T09:33:09;7.85;;;5.97;;
21890;SDS011;11110;52.386;16.940;2023-06-14T09:35:38;8.48;;;6.32;;
21890;SDS011;11110;52.386;16.940;2023-06-14T09:38:09;8.75;;;5.97;;
21890;SDS011;11110;52.386;16.940;2023-06-14T09:40:38;7.97;;;5.05;;
21890;SDS011;11110;52.386;16.940;2023-06-14T09:43:07;5.82;;;5.20;;
21890;SDS011;11110;52.386;16.940;2023-06-14T09:45:38;10.30;;;7.20;;
21890;SDS011;11110;52.386;16.940;2023-06-14T09:48:07;8.23;;;5.28;;
21890;SDS011;11110;52.386;16.940;2023-06-14T09:50:37;6.82;;;5.00;;
21890;SDS011;11110;52.386;16.940;2023-06-14T09:53:06;8.07;;;4.32;;
21890;SDS011;11110;52.386;16.940;2023-06-14T09:55:37;5.80;;;4.53;;
21890;SDS011;11110;52.386;16.940;2023-06-14T09:58:06;7.82;;;5.95;;
21890;SDS011;11110;52.386;16.940;2023-06-14T10:00:36;8.50;;;5.25;;
21890;SDS011;11110;52.386;16.940;2023-06-14T10:03:11;6.65;;;4.68;;
21890;SDS011;11110;52.386;16.940;2023-06-14T10:05:41;8.07;;;5.38;;
21890;SDS011;11110;52.386;16.940;2023-06-14T10:08:13;6.88;;;4.60;;
21890;SDS011;11110;52.386;16.940;2023-06-14T10:10:45;5.97;;;4.65;;
21890;SDS011;11110;52.386;16.940;2023-06-14T10:13:15;6.75;;;4.90;;
21890;SDS011;11110;52.386;16.940;2023-06-14T10:15:56;9.02;;;5.30;;
21890;SDS011;11110;52.386;16.940;2023-06-14T10:18:35;6.60;;;4.85;;
21890;SDS011;11110;52.386;16.940;2023-06-14T10:21:13;5.65;;;4.43;;
21890;SDS011;11110;52.386;16.940;2023-06-14T10:23:49;8.70;;;4.85;;
21890;SDS011;11110;52.386;16.940;2023-06-14T10:26:20;6.45;;;4.47;;
21890;SDS011;11110;52.386;16.940;2023-06-14T10:28:58;6.55;;;4.90;;
21890;SDS011;11110;52.386;16.940;2023-06-14T10:31:41;8.60;;;4.30;;
21890;SDS011;11110;52.386;16.940;2023-06-14T10:34:11;9.15;;;5.20;;
21890;SDS011;11110;52.386;16.940;2023-06-14T10:36:41;6.40;;;5.03;;
21890;SDS011;11110;52.386;16.940;2023-06-14T10:39:13;5.03;;;4.53;;
21890;SDS011;11110;52.386;16.940;2023-06-14T10:41:52;6.85;;;4.30;;
21890;SDS011;11110;52.386;16.940;2023-06-14T10:44:34;4.63;;;3.90;;
21890;SDS011;11110;52.386;16.940;2023-06-14T10:47:10;5.50;;;4.13;;
21890;SDS011;11110;52.386;16.940;2023-06-14T10:49:50;7.57;;;4.22;;
21890;SDS011;11110;52.386;16.940;2023-06-14T10:52:23;9.85;;;4.40;;
21890;SDS011;11110;52.386;16.940;2023-06-14T10:57:43;4.93;;;3.70;;
21890;SDS011;11110;52.386;16.940;2023-06-14T11:00:19;6.72;;;3.90;;
21890;SDS011;11110;52.386;16.940;2023-06-14T11:06:11;5.03;;;4.00;;
21890;SDS011;11110;52.386;16.940;2023-06-14T11:08:51;6.78;;;4.32;;
21890;SDS011;11110;52.386;16.940;2023-06-14T11:11:37;6.90;;;3.60;;
21890;SDS011;11110;52.386;16.940;2023-06-14T11:14:11;5.55;;;4.25;;
21890;SDS011;11110;52.386;16.940;2023-06-14T11:16:39;5.53;;;3.35;;
21890;SDS011;11110;52.386;16.940;2023-06-14T11:19:08;5.70;;;3.60;;
21890;SDS011;11110;52.386;16.940;2023-06-14T11:21:39;4.35;;;3.58;;
21890;SDS011;11110;52.386;16.940;2023-06-14T11:24:09;5.45;;;3.25;;
21890;SDS011;11110;52.386;16.940;2023-06-14T11:26:40;4.78;;;4.13;;
21890;SDS011;11110;52.386;16.940;2023-06-14T11:29:08;7.22;;;4.32;;
21890;SDS011;11110;52.386;16.940;2023-06-14T11:31:38;5.40;;;4.00;;
21890;SDS011;11110;52.386;16.940;2023-06-14T11:34:12;5.50;;;4.20;;
21890;SDS011;11110;52.386;16.940;2023-06-14T11:36:42;5.38;;;3.67;;
21890;SDS011;11110;52.386;16.940;2023-06-14T11:39:12;6.47;;;3.40;;
21890;SDS011;11110;52.386;16.940;2023-06-14T11:41:42;10.95;;;8.45;;
21890;SDS011;11110;52.386;16.940;2023-06-14T11:44:11;8.63;;;5.82;;
21890;SDS011;11110;52.386;16.940;2023-06-14T11:46:41;6.28;;;3.75;;
21890;SDS011;11110;52.386;16.940;2023-06-14T11:49:10;6.35;;;4.63;;
21890;SDS011;11110;52.386;16.940;2023-06-14T11:51:38;6.80;;;4.30;;
21890;SDS011;11110;52.386;16.940;2023-06-14T11:54:07;6.40;;;4.20;;
21890;SDS011;11110;52.386;16.940;2023-06-14T11:56:37;5.60;;;3.88;;
21890;SDS011;11110;52.386;16.940;2023-06-14T11:59:05;8.25;;;5.40;;
21890;SDS011;11110;52.386;16.940;2023-06-14T12:01:37;5.93;;;4.07;;
21890;SDS011;11110;52.386;16.940;2023-06-14T12:04:08;6.28;;;3.80;;
21890;SDS011;11110;52.386;16.940;2023-06-14T12:06:37;5.30;;;4.18;;
21890;SDS011;11110;52.386;16.940;2023-06-14T12:09:07;5.00;;;4.18;;
21890;SDS011;11110;52.386;16.940;2023-06-14T12:11:40;7.47;;;4.20;;
21890;SDS011;11110;52.386;16.940;2023-06-14T12:14:09;7.57;;;3.67;;
21890;SDS011;11110;52.386;16.940;2023-06-14T12:16:38;5.75;;;3.75;;
21890;SDS011;11110;52.386;16.940;2023-06-14T12:19:11;6.43;;;4.15;;
21890;SDS011;11110;52.386;16.940;2023-06-14T12:21:41;4.80;;;3.75;;
21890;SDS011;11110;52.386;16.940;2023-06-14T12:24:11;5.70;;;3.72;;
21890;SDS011;11110;52.386;16.940;2023-06-14T12:26:41;4.75;;;3.75;;
21890;SDS011;11110;52.386;16.940;2023-06-14T12:29:10;6.80;;;3.80;;
21890;SDS011;11110;52.386;16.940;2023-06-14T12:31:40;6.53;;;3.92;;
21890;SDS011;11110;52.386;16.940;2023-06-14T12:34:10;5.32;;;3.75;;
21890;SDS011;11110;52.386;16.940;2023-06-14T12:36:39;5.30;;;3.85;;
21890;SDS011;11110;52.386;16.940;2023-06-14T12:39:11;5.85;;;3.88;;
21890;SDS011;11110;52.386;16.940;2023-06-14T12:41:40;4.85;;;3.90;;
21890;SDS011;11110;52.386;16.940;2023-06-14T12:44:09;6.65;;;4.07;;
21890;SDS011;11110;52.386;16.940;2023-06-14T12:46:38;5.38;;;3.42;;
21890;SDS011;11110;52.386;16.940;2023-06-14T12:49:08;4.10;;;3.75;;
21890;SDS011;11110;52.386;16.940;2023-06-14T12:51:39;10.60;;;5.55;;
21890;SDS011;11110;52.386;16.940;2023-06-14T12:54:07;8.32;;;5.32;;
21890;SDS011;11110;52.386;16.940;2023-06-14T12:56:36;8.00;;;6.70;;
21890;SDS011;11110;52.386;16.940;2023-06-14T12:59:05;10.07;;;7.53;;
21890;SDS011;11110;52.386;16.940;2023-06-14T13:01:34;11.23;;;6.97;;
21890;SDS011;11110;52.386;16.940;2023-06-14T13:04:03;5.03;;;4.53;;
21890;SDS011;11110;52.386;16.940;2023-06-14T13:06:33;6.20;;;4.47;;
21890;SDS011;11110;52.386;16.940;2023-06-14T13:09:02;8.40;;;5.75;;
21890;SDS011;11110;52.386;16.940;2023-06-14T13:11:31;7.40;;;4.38;;
21890;SDS011;11110;52.386;16.940;2023-06-14T13:14:00;6.20;;;3.85;;
21890;SDS011;11110;52.386;16.940;2023-06-14T13:16:47;5.55;;;3.70;;
21890;SDS011;11110;52.386;16.940;2023-06-14T13:19:15;3.85;;;3.42;;
21890;SDS011;11110;52.386;16.940;2023-06-14T13:21:45;4.32;;;3.63;;
21890;SDS011;11110;52.386;16.940;2023-06-14T13:24:14;4.97;;;3.97;;
21890;SDS011;11110;52.386;16.940;2023-06-14T13:26:43;4.88;;;3.42;;
21890;SDS011;11110;52.386;16.940;2023-06-14T13:29:11;9.35;;;5.82;;
21890;SDS011;11110;52.386;16.940;2023-06-14T13:31:40;6.00;;;4.35;;
21890;SDS011;11110;52.386;16.940;2023-06-14T13:34:08;7.55;;;6.75;;
21890;SDS011;11110;52.386;16.940;2023-06-14T13:36:37;7.53;;;5.10;;
21890;SDS011;11110;52.386;16.940;2023-06-14T13:39:07;6.70;;;3.72;;
21890;SDS011;11110;52.386;16.940;2023-06-14T13:41:35;4.88;;;4.40;;
21890;SDS011;11110;52.386;16.940;2023-06-14T13:44:04;6.15;;;4.57;;
21890;SDS011;11110;52.386;16.940;2023-06-14T13:46:33;3.95;;;3.58;;
21890;SDS011;11110;52.386;16.940;2023-06-14T13:49:02;10.80;;;5.45;;
21890;SDS011;11110;52.386;16.940;2023-06-14T13:51:32;7.50;;;3.95;;
21890;SDS011;11110;52.386;16.940;2023-06-14T13:54:01;3.60;;;3.30;;
21890;SDS011;11110;52.386;16.940;2023-06-14T13:56:31;6.45;;;3.60;;
21890;SDS011;11110;52.386;16.940;2023-06-14T13:59:00;4.68;;;3.25;;
21890;SDS011;11110;52.386;16.940;2023-06-14T14:01:28;5.20;;;3.72;;
21890;SDS011;11110;52.386;16.940;2023-06-14T14:03:57;8.85;;;4.97;;
21890;SDS011;11110;52.386;16.940;2023-06-14T14:06:27;6.72;;;5.18;;
21890;SDS011;11110;52.386;16.940;2023-06-14T14:08:56;4.60;;;4.20;;
21890;SDS011;11110;52.386;16.940;2023-06-14T14:11:25;7.32;;;6.53;;
21890;SDS011;11110;52.386;16.940;2023-06-14T14:13:56;12.50;;;9.55;;
21890;SDS011;11110;52.386;16.940;2023-06-14T14:16:25;12.63;;;8.88;;
21890;SDS011;11110;52.386;16.940;2023-06-14T14:18:53;8.73;;;6.53;;
21890;SDS011;11110;52.386;16.940;2023-06-14T14:21:22;8.43;;;4.47;;
21890;SDS011;11110;52.386;16.940;2023-06-14T14:23:50;4.13;;;3.47;;
21890;SDS011;11110;52.386;16.940;2023-06-14T14:26:19;3.72;;;3.30;;
21890;SDS011;11110;52.386;16.940;2023-06-14T14:28:47;5.32;;;3.70;;
21890;SDS011;11110;52.386;16.940;2023-06-14T14:31:17;4.82;;;3.45;;
21890;SDS011;11110;52.386;16.940;2023-06-14T14:33:46;4.72;;;3.00;;
21890;SDS011;11110;52.386;16.940;2023-06-14T14:36:15;5.25;;;3.40;;
21890;SDS011;11110;52.386;16.940;2023-06-14T14:38:43;7.85;;;2.65;;
21890;SDS011;11110;52.386;16.940;2023-06-14T14:41:12;2.95;;;2.50;;
21890;SDS011;11110;52.386;16.940;2023-06-14T14:43:41;5.15;;;3.13;;
21890;SDS011;11110;52.386;16.940;2023-06-14T14:46:09;3.03;;;2.70;;
21890;SDS011;11110;52.386;16.940;2023-06-14T14:48:39;4.25;;;2.70;;
21890;SDS011;11110;52.386;16.940;2023-06-14T14:51:08;2.47;;;2.22;;
21890;SDS011;11110;52.386;16.940;2023-06-14T14:53:36;4.80;;;2.65;;
21890;SDS011;11110;52.386;16.940;2023-06-14T14:56:05;2.78;;;2.45;;